Thor, Iowa
Current Conditions -  °F | °C
As of 6:55 AM on Monday 22 Dec 2014 (Local Time) from KFOD Reporting Station
Overcast Overcast  
Wind Chill: 33°   Ceiling: 600
Heat Index: 39°   Visibility: 4mi
Dew Point: 36°   Wind: 9mph
Humidity: 87%   Direction: 150°SSE
Pressure: 29.61"   Gusts: NA
Location:  42.69°N, 94.05°W
Report Text: KFOD 221255Z AUTO 15008KT 4SM OVC006 04/02 A2961 RMK AO1
Loading
Personal Weather Stations






























Interactive Weather Map New forecast layout! Learn more

10-Day Weather Forecast

Advertisements
Track Severe Weather on mobile